Time;durP1;ratioP1;P1;durP2;ratioP2;P2;SDS_P1;SDS_P2;PMS_P1;PMS_P2;Temp;Humidity;BMP_temperature;BMP_pressure;BME280_temperature;BME280_humidity;BME280_pressure;Samples;Min_cycle;Max_cycle;Signal;HPM_P1;HPM_P2
2023/10/19 00:00:55;;;;;;;27.58;19.27;;;9.20;99.90;;;;;;5033436;28;20197;-52
2023/10/19 00:03:23;;;;;;;25.92;17.90;;;9.20;99.90;;;;;;5033928;28;20271;-54
2023/10/19 00:05:49;;;;;;;27.27;18.73;;;9.20;99.90;;;;;;5034098;28;20239;-56
2023/10/19 00:08:20;;;;;;;27.95;19.05;;;9.20;99.90;;;;;;5033355;28;20237;-57
2023/10/19 00:13:50;;;;;;;27.02;19.48;;;9.10;99.90;;;;;;5000242;28;20262;-59
2023/10/19 00:16:17;;;;;;;27.98;19.08;;;9.10;99.90;;;;;;5033714;28;20546;-59
2023/10/19 00:18:43;;;;;;;28.67;20.83;;;9.10;99.90;;;;;;5016063;28;20542;-52
2023/10/19 00:23:39;;;;;;;33.28;20.45;;;9.10;99.90;;;;;;5033426;28;20215;-58
2023/10/19 00:26:13;;;;;;;29.20;21.15;;;9.10;99.90;;;;;;5031967;28;20199;-62
2023/10/19 00:28:40;;;;;;;29.00;21.13;;;9.00;99.90;;;;;;5015767;28;20179;-59
2023/10/19 00:31:10;;;;;;;26.60;19.52;;;9.00;99.90;;;;;;5032974;28;20180;-60
2023/10/19 00:33:40;;;;;;;30.67;19.80;;;9.00;99.90;;;;;;5015765;28;20164;-57
2023/10/19 00:36:07;;;;;;;26.55;19.63;;;9.00;99.90;;;;;;5016076;28;20210;-61
2023/10/19 00:41:27;;;;;;;26.17;18.52;;;9.00;99.90;;;;;;5015919;28;20161;-58
2023/10/19 00:44:03;;;;;;;27.67;20.33;;;9.00;99.90;;;;;;5032703;28;20235;-57
2023/10/19 00:46:33;;;;;;;31.92;21.55;;;9.00;99.90;;;;;;4999273;28;20207;-61
2023/10/19 00:49:05;;;;;;;28.63;21.05;;;9.00;99.90;;;;;;5015639;28;20172;-59
2023/10/19 00:54:37;;;;;;;27.75;19.80;;;8.90;99.90;;;;;;5033380;28;20575;-60
2023/10/19 00:57:09;;;;;;;29.52;20.95;;;9.00;99.90;;;;;;5014815;28;20228;-61
2023/10/19 00:59:54;;;;;;;32.42;21.35;;;9.00;99.90;;;;;;5032629;28;20246;-56
2023/10/19 01:02:29;;;;;;;30.23;21.30;;;9.00;99.90;;;;;;5032557;28;20235;-60
2023/10/19 01:05:14;;;;;;;30.08;20.98;;;8.90;99.90;;;;;;4999402;28;20182;-61
2023/10/19 01:07:41;;;;;;;31.20;22.48;;;9.00;99.90;;;;;;5015177;28;20650;-58
2023/10/19 01:10:08;;;;;;;32.13;21.15;;;9.00;99.90;;;;;;5032663;28;20179;-59
2023/10/19 01:12:43;;;;;;;32.85;22.73;;;9.00;99.90;;;;;;5014955;28;20180;-63
2023/10/19 01:15:17;;;;;;;31.38;21.30;;;8.90;99.90;;;;;;5032968;28;20678;-59
2023/10/19 01:17:51;;;;;;;31.25;22.70;;;9.00;99.90;;;;;;5032517;28;20192;-58
2023/10/19 01:31:13;;;;;;;32.63;23.58;;;9.00;99.90;;;;;;5032708;28;20188;-57
2023/10/19 01:33:40;;;;;;;32.30;24.00;;;9.00;99.90;;;;;;5014502;28;20225;-56
2023/10/19 01:36:11;;;;;;;33.75;24.25;;;9.00;99.90;;;;;;5014450;28;20215;-57
2023/10/19 01:38:39;;;;;;;32.97;23.35;;;8.90;99.90;;;;;;5032680;28;20502;-55
2023/10/19 01:41:13;;;;;;;34.28;24.52;;;8.90;99.90;;;;;;5032085;28;20562;-57
2023/10/19 01:43:50;;;;;;;31.83;23.77;;;8.90;99.90;;;;;;5032540;28;20557;-57
2023/10/19 01:46:24;;;;;;;31.98;24.40;;;8.90;99.90;;;;;;5032399;28;20357;-55
2023/10/19 01:48:56;;;;;;;33.00;24.40;;;8.90;99.90;;;;;;5032205;28;20269;-54
2023/10/19 01:51:25;;;;;;;35.47;24.50;;;8.90;99.90;;;;;;5014732;28;20302;-56
2023/10/19 01:53:51;;;;;;;32.70;23.33;;;8.90;99.90;;;;;;5014293;28;20183;-58
2023/10/19 01:56:18;;;;;;;31.52;23.70;;;8.90;99.90;;;;;;5014488;28;20240;-55
2023/10/19 01:58:49;;;;;;;33.85;23.77;;;8.90;99.90;;;;;;5014585;28;20577;-64
2023/10/19 02:01:20;;;;;;;33.47;24.48;;;8.90;99.90;;;;;;5030495;28;20244;-61
2023/10/19 02:03:53;;;;;;;29.90;21.20;;;8.90;99.90;;;;;;4997701;28;20173;-57
2023/10/19 02:06:20;;;;;;;34.45;25.20;;;8.90;99.90;;;;;;4998245;28;20639;-62
2023/10/19 02:08:51;;;;;;;32.33;22.20;;;8.90;99.90;;;;;;5031636;28;20180;-57
2023/10/19 02:11:22;;;;;;;31.33;22.90;;;8.90;99.90;;;;;;4998429;28;20597;-58
2023/10/19 02:13:49;;;;;;;32.70;23.55;;;8.90;99.90;;;;;;5014443;28;20263;-57
2023/10/19 02:16:16;;;;;;;27.80;18.05;;;8.80;99.90;;;;;;5014229;28;20609;-57
2023/10/19 02:18:44;;;;;;;32.28;23.70;;;8.80;99.90;;;;;;5031620;28;20204;-56
2023/10/19 02:21:12;;;;;;;27.40;19.25;;;8.80;99.90;;;;;;5031823;28;20211;-57
2023/10/19 02:23:39;;;;;;;38.88;24.80;;;8.80;99.90;;;;;;5031725;28;20679;-60
2023/10/19 02:26:06;;;;;;;32.25;23.55;;;8.80;99.90;;;;;;5031711;28;20250;-55
2023/10/19 02:28:32;;;;;;;30.45;23.52;;;8.80;99.90;;;;;;5013754;28;20188;-54
2023/10/19 02:31:10;;;;;;;35.55;24.85;;;8.80;99.90;;;;;;4997482;28;20188;-53
2023/10/19 02:33:38;;;;;;;32.63;23.10;;;8.70;99.90;;;;;;5031661;28;20206;-57
2023/10/19 02:36:04;;;;;;;36.20;24.55;;;8.70;99.90;;;;;;5031861;28;20208;-53
2023/10/19 02:38:30;;;;;;;36.90;22.80;;;8.70;99.90;;;;;;5031441;28;20180;-53
2023/10/19 02:40:56;;;;;;;33.08;24.13;;;8.70;99.90;;;;;;5014262;28;20239;-51
2023/10/19 02:43:24;;;;;;;34.95;24.15;;;8.70;99.90;;;;;;5032765;28;20274;-55
2023/10/19 02:45:51;;;;;;;36.63;24.25;;;8.70;99.90;;;;;;5035346;28;20208;-54
2023/10/19 02:48:17;;;;;;;30.70;22.63;;;8.70;99.90;;;;;;5035109;28;20188;-56
2023/10/19 02:50:43;;;;;;;32.60;22.92;;;8.70;99.90;;;;;;5033815;28;20208;-53
2023/10/19 02:53:12;;;;;;;29.27;19.67;;;8.70;99.90;;;;;;5034859;28;20212;-56
2023/10/19 02:55:40;;;;;;;28.30;21.90;;;8.70;99.90;;;;;;5017507;28;20223;-54
2023/10/19 02:58:06;;;;;;;34.67;23.98;;;8.60;99.90;;;;;;5017269;28;20169;-53
2023/10/19 03:00:33;;;;;;;33.45;23.92;;;8.60;99.90;;;;;;5017124;28;20168;-53
2023/10/19 03:03:00;;;;;;;29.67;22.25;;;8.60;99.90;;;;;;5034968;28;20233;-52
2023/10/19 03:05:27;;;;;;;34.72;23.08;;;8.60;99.90;;;;;;5034578;28;20225;-56
2023/10/19 03:07:53;;;;;;;34.70;24.08;;;8.60;99.90;;;;;;5034477;28;20666;-52
2023/10/19 03:10:34;;;;;;;31.20;22.92;;;8.60;99.90;;;;;;5034850;28;20255;-57
2023/10/19 03:13:04;;;;;;;33.65;23.45;;;8.60;99.90;;;;;;5034988;28;20200;-50
2023/10/19 03:15:33;;;;;;;27.52;20.70;;;8.60;99.90;;;;;;5017447;28;20184;-50
2023/10/19 03:18:01;;;;;;;31.80;22.27;;;8.60;99.90;;;;;;5016912;28;20188;-56
2023/10/19 03:20:33;;;;;;;29.05;22.52;;;8.60;99.90;;;;;;5034809;28;20172;-53
2023/10/19 03:23:01;;;;;;;29.38;21.75;;;8.60;99.90;;;;;;5017540;28;20265;-56
2023/10/19 03:28:16;;;;;;;31.20;22.27;;;8.60;99.90;;;;;;5016751;28;20179;-56
2023/10/19 03:30:42;;;;;;;28.45;21.40;;;8.60;99.90;;;;;;5034770;28;20529;-50
2023/10/19 03:33:12;;;;;;;29.05;21.60;;;8.60;99.90;;;;;;5016428;28;20207;-56
2023/10/19 03:35:41;;;;;;;28.17;20.98;;;8.60;99.90;;;;;;5016437;28;20549;-53
2023/10/19 03:38:14;;;;;;;30.85;21.83;;;8.60;99.90;;;;;;5016359;28;20188;-50
2023/10/19 03:40:41;;;;;;;27.00;20.38;;;8.60;99.90;;;;;;5016696;28;20171;-56
2023/10/19 03:43:17;;;;;;;29.20;20.85;;;8.70;99.90;;;;;;5034201;28;20188;-55
2023/10/19 03:45:51;;;;;;;29.02;21.17;;;8.60;99.90;;;;;;5033785;28;20660;-55
2023/10/19 03:48:26;;;;;;;29.02;20.83;;;8.70;99.90;;;;;;5033964;28;20315;-54
2023/10/19 03:50:55;;;;;;;26.80;20.02;;;8.70;99.90;;;;;;5016631;28;20159;-52
2023/10/19 03:53:22;;;;;;;25.67;19.67;;;8.70;99.90;;;;;;5015994;28;20179;-53
2023/10/19 03:55:50;;;;;;;23.25;17.23;;;8.70;99.90;;;;;;5014580;28;20184;-54
2023/10/19 03:58:17;;;;;;;28.85;21.13;;;8.70;99.90;;;;;;5033656;28;20187;-53
2023/10/19 04:00:44;;;;;;;27.58;19.58;;;8.70;99.90;;;;;;5033657;28;20609;-55
2023/10/19 04:03:10;;;;;;;27.45;21.05;;;8.70;99.90;;;;;;5033590;28;20184;-60
2023/10/19 04:05:38;;;;;;;26.63;19.85;;;8.70;99.90;;;;;;5033690;28;20282;-54
2023/10/19 04:08:19;;;;;;;25.27;19.90;;;8.70;99.90;;;;;;5016181;28;20287;-57
2023/10/19 04:11:08;;;;;;;28.75;21.10;;;8.70;99.90;;;;;;5033504;28;20176;-55
2023/10/19 04:13:37;;;;;;;28.38;20.23;;;8.70;99.90;;;;;;5033595;28;20184;-53
2023/10/19 04:16:05;;;;;;;25.40;18.30;;;8.70;99.90;;;;;;5033576;28;20187;-54
2023/10/19 04:18:33;;;;;;;26.73;19.73;;;8.70;99.90;;;;;;5033397;28;20262;-52
2023/10/19 04:21:02;;;;;;;29.15;20.70;;;8.70;99.90;;;;;;5033314;28;20609;-51
2023/10/19 04:23:28;;;;;;;26.80;19.38;;;8.70;99.90;;;;;;5033579;28;20226;-50
2023/10/19 04:25:56;;;;;;;27.00;19.88;;;8.70;99.90;;;;;;5015292;28;20583;-53
2023/10/19 04:28:30;;;;;;;30.35;20.30;;;8.70;99.90;;;;;;5033240;28;20271;-54
2023/10/19 04:31:02;;;;;;;26.88;18.75;;;8.80;99.90;;;;;;5033070;28;20181;-52
2023/10/19 04:33:30;;;;;;;25.15;18.70;;;8.80;99.90;;;;;;5032975;28;20217;-51
2023/10/19 04:35:56;;;;;;;25.88;19.02;;;8.80;99.90;;;;;;5015846;28;20176;-52
2023/10/19 04:38:23;;;;;;;23.70;18.00;;;8.80;99.90;;;;;;5032689;28;20200;-54
2023/10/19 04:40:49;;;;;;;23.00;17.30;;;8.80;99.90;;;;;;5032603;28;20180;-51
2023/10/19 04:43:16;;;;;;;25.33;18.73;;;8.80;99.90;;;;;;5015304;28;20183;-49
2023/10/19 04:45:44;;;;;;;27.48;18.75;;;8.80;99.90;;;;;;5032637;28;20303;-56
2023/10/19 04:48:10;;;;;;;26.88;19.02;;;8.80;99.90;;;;;;5032503;28;20188;-51
2023/10/19 04:50:36;;;;;;;25.83;18.70;;;8.90;99.90;;;;;;5032553;28;20180;-52
2023/10/19 04:53:02;;;;;;;23.83;18.65;;;8.90;99.90;;;;;;5032507;28;20249;-54
2023/10/19 04:55:32;;;;;;;22.80;18.25;;;8.90;99.90;;;;;;5031701;28;20267;-51
2023/10/19 04:57:57;;;;;;;27.00;18.95;;;8.90;99.90;;;;;;5032357;28;20622;-53
2023/10/19 05:00:24;;;;;;;25.00;18.88;;;8.90;99.90;;;;;;5032408;28;20190;-53
2023/10/19 05:02:51;;;;;;;24.38;17.85;;;8.90;99.90;;;;;;5014716;28;20176;-50
2023/10/19 05:05:18;;;;;;;24.40;17.67;;;9.00;99.90;;;;;;5032404;28;20663;-52
2023/10/19 05:07:44;;;;;;;21.90;16.77;;;9.00;99.90;;;;;;5032250;28;20176;-53
2023/10/19 05:10:11;;;;;;;20.15;14.90;;;9.00;99.90;;;;;;5014667;28;20180;-54
2023/10/19 05:12:37;;;;;;;21.13;16.88;;;9.00;99.90;;;;;;5032648;28;20179;-58
2023/10/19 05:15:05;;;;;;;23.60;16.77;;;9.00;99.90;;;;;;5032367;28;20180;-57
2023/10/19 05:17:32;;;;;;;23.25;16.27;;;9.00;99.90;;;;;;5032005;28;20179;-58
2023/10/19 05:19:58;;;;;;;20.20;16.05;;;9.00;99.90;;;;;;5032012;28;20629;-53
2023/10/19 05:22:29;;;;;;;20.90;16.48;;;9.00;99.90;;;;;;5032055;28;20202;-51
2023/10/19 05:24:55;;;;;;;21.00;14.68;;;9.00;99.90;;;;;;5032881;28;20230;-53
2023/10/19 05:27:22;;;;;;;21.88;15.38;;;9.10;99.90;;;;;;5014119;28;20684;-57
2023/10/19 05:29:48;;;;;;;21.98;14.93;;;9.00;99.90;;;;;;5032152;28;20192;-54
2023/10/19 05:32:14;;;;;;;19.25;13.75;;;9.00;99.90;;;;;;5032009;28;20184;-58
2023/10/19 05:34:40;;;;;;;16.08;13.10;;;9.00;99.90;;;;;;5032110;28;20664;-54
2023/10/19 05:37:06;;;;;;;21.70;14.90;;;9.10;99.90;;;;;;5032080;28;20196;-53
2023/10/19 05:39:36;;;;;;;16.73;13.50;;;9.10;99.90;;;;;;5032188;28;20192;-52
2023/10/19 05:42:02;;;;;;;16.08;13.13;;;9.00;99.90;;;;;;5031999;28;20171;-50
2023/10/19 05:44:30;;;;;;;16.40;12.88;;;9.10;99.90;;;;;;5032474;28;20240;-57
2023/10/19 05:46:56;;;;;;;13.68;11.13;;;9.10;99.90;;;;;;5032118;28;20215;-57
2023/10/19 05:49:23;;;;;;;13.18;10.38;;;9.10;99.90;;;;;;5030874;28;20200;-59
2023/10/19 05:51:50;;;;;;;13.32;10.70;;;9.10;99.90;;;;;;5032369;28;20238;-51
2023/10/19 05:54:17;;;;;;;13.38;10.45;;;9.10;99.90;;;;;;4997739;28;20664;-55
2023/10/19 05:56:43;;;;;;;21.90;15.45;;;9.10;99.90;;;;;;5031639;28;20223;-56
2023/10/19 05:59:10;;;;;;;12.57;9.15;;;9.10;99.90;;;;;;5031251;28;20182;-53
2023/10/19 06:01:41;;;;;;;12.52;10.02;;;9.10;99.90;;;;;;5031415;28;20188;-54
2023/10/19 06:04:07;;;;;;;12.57;9.82;;;9.10;99.90;;;;;;5031665;28;20509;-52
2023/10/19 06:06:33;;;;;;;12.63;9.85;;;9.10;99.90;;;;;;5013917;28;20208;-52
2023/10/19 06:09:00;;;;;;;13.43;9.98;;;9.10;99.90;;;;;;5032132;28;20246;-57
2023/10/19 06:11:32;;;;;;;12.75;9.98;;;9.10;99.90;;;;;;5032047;28;20577;-59
2023/10/19 06:13:59;;;;;;;12.07;10.05;;;9.10;99.90;;;;;;5031751;28;20160;-52
2023/10/19 06:16:25;;;;;;;14.02;10.25;;;9.10;99.90;;;;;;5031669;28;20187;-52
2023/10/19 06:18:51;;;;;;;12.80;10.30;;;9.10;99.90;;;;;;5033066;28;20187;-57
2023/10/19 06:21:20;;;;;;;12.75;9.55;;;9.10;99.90;;;;;;5035343;28;20232;-53
2023/10/19 06:23:46;;;;;;;10.70;8.77;;;9.10;99.90;;;;;;5033872;28;20184;-52
2023/10/19 06:26:12;;;;;;;10.55;8.57;;;9.10;99.90;;;;;;5035683;28;20532;-51
2023/10/19 06:28:40;;;;;;;12.57;9.60;;;9.10;99.90;;;;;;5034905;28;20590;-56
2023/10/19 06:31:07;;;;;;;11.50;9.27;;;9.10;99.90;;;;;;5017579;28;20266;-56
2023/10/19 06:33:41;;;;;;;11.68;8.73;;;9.10;99.90;;;;;;5034904;28;20195;-53
2023/10/19 06:36:07;;;;;;;10.43;8.45;;;9.10;99.90;;;;;;5017337;28;20176;-52
2023/10/19 06:38:33;;;;;;;10.30;8.50;;;9.10;99.90;;;;;;5035020;28;20290;-57
2023/10/19 06:41:02;;;;;;;11.80;9.30;;;9.10;99.90;;;;;;5035049;28;20300;-54
2023/10/19 06:43:30;;;;;;;11.00;8.75;;;9.10;99.90;;;;;;5035209;28;20175;-57
2023/10/19 06:45:56;;;;;;;10.65;8.77;;;9.10;99.90;;;;;;5017407;28;20234;-55
2023/10/19 06:48:22;;;;;;;11.95;8.48;;;9.10;99.90;;;;;;5034853;28;20184;-54
2023/10/19 06:50:48;;;;;;;11.80;8.10;;;9.10;99.90;;;;;;5034388;28;20180;-56
2023/10/19 06:53:14;;;;;;;9.95;8.07;;;9.20;99.90;;;;;;5034903;28;20266;-53
2023/10/19 06:55:40;;;;;;;9.25;7.57;;;9.20;99.90;;;;;;5016887;28;20258;-50
2023/10/19 06:58:07;;;;;;;12.38;8.05;;;9.20;99.90;;;;;;5033133;28;20638;-56
2023/10/19 07:00:34;;;;;;;9.65;8.20;;;9.20;99.90;;;;;;5034231;28;20188;-55
2023/10/19 07:03:00;;;;;;;7.88;7.07;;;9.20;99.90;;;;;;5016612;28;20180;-57
2023/10/19 07:05:29;;;;;;;10.23;8.50;;;9.20;99.90;;;;;;5034123;28;20623;-52
2023/10/19 07:07:58;;;;;;;9.15;7.25;;;9.20;99.90;;;;;;5034895;28;20188;-54
2023/10/19 07:10:25;;;;;;;8.95;7.50;;;9.20;99.90;;;;;;5034633;28;20199;-54
2023/10/19 07:12:56;;;;;;;8.82;7.35;;;9.20;99.90;;;;;;5034668;28;20583;-55
2023/10/19 07:15:23;;;;;;;10.60;8.95;;;9.20;99.90;;;;;;5034078;28;20168;-53
2023/10/19 07:17:52;;;;;;;8.63;7.40;;;9.20;99.90;;;;;;5034436;28;20286;-52
2023/10/19 07:20:36;;;;;;;7.72;6.88;;;9.20;99.90;;;;;;5034215;28;20183;-57
2023/10/19 07:23:09;;;;;;;7.85;6.72;;;9.20;99.90;;;;;;5034770;28;20259;-54
2023/10/19 07:25:43;;;;;;;7.18;6.32;;;9.20;99.90;;;;;;5034665;28;20294;-52
2023/10/19 07:28:10;;;;;;;7.00;6.13;;;9.20;99.90;;;;;;5033960;28;20198;-57
2023/10/19 07:30:36;;;;;;;8.65;6.80;;;9.20;99.90;;;;;;5033888;28;20245;-53
2023/10/19 07:33:04;;;;;;;6.97;6.25;;;9.20;99.90;;;;;;5016535;28;20276;-55
2023/10/19 07:35:37;;;;;;;6.90;6.20;;;9.30;99.90;;;;;;5034505;28;20180;-58
2023/10/19 07:38:04;;;;;;;6.78;5.75;;;9.30;99.90;;;;;;5034962;28;20246;-58
2023/10/19 07:40:30;;;;;;;7.03;6.00;;;9.30;99.90;;;;;;5034573;28;20180;-57
2023/10/19 07:42:56;;;;;;;8.73;7.35;;;9.30;99.90;;;;;;5034104;28;20184;-54
2023/10/19 07:45:23;;;;;;;6.40;5.63;;;9.40;99.90;;;;;;5034391;28;20189;-55
2023/10/19 07:47:49;;;;;;;6.80;6.10;;;9.30;99.90;;;;;;5016275;28;20220;-57
2023/10/19 07:50:18;;;;;;;6.93;5.55;;;9.30;99.90;;;;;;5033991;28;20593;-57
2023/10/19 07:52:48;;;;;;;4.68;4.28;;;9.30;99.90;;;;;;5016807;28;20580;-55
2023/10/19 07:55:16;;;;;;;5.95;5.38;;;9.40;99.90;;;;;;5034156;28;20214;-57
2023/10/19 07:57:42;;;;;;;7.50;5.63;;;9.30;99.90;;;;;;5015834;28;20255;-58
2023/10/19 08:00:10;;;;;;;6.10;5.50;;;9.40;99.90;;;;;;5033880;28;20186;-57
2023/10/19 08:02:41;;;;;;;6.07;5.25;;;9.40;99.90;;;;;;5033464;28;20626;-57
2023/10/19 08:05:08;;;;;;;6.63;5.95;;;9.40;99.90;;;;;;5033689;28;20167;-53
2023/10/19 08:07:36;;;;;;;6.60;5.90;;;9.40;99.90;;;;;;5032887;28;20311;-55
2023/10/19 08:10:05;;;;;;;6.65;5.95;;;9.40;99.90;;;;;;5033572;28;20187;-55
2023/10/19 08:12:32;;;;;;;7.25;6.15;;;9.40;99.90;;;;;;5033398;28;20245;-56
2023/10/19 08:14:59;;;;;;;8.18;6.30;;;9.40;99.90;;;;;;5033093;28;20604;-56
2023/10/19 08:17:25;;;;;;;7.32;6.63;;;9.40;99.90;;;;;;5033135;28;20187;-54
2023/10/19 08:19:51;;;;;;;7.00;6.30;;;9.40;99.90;;;;;;5015100;28;20551;-55
2023/10/19 08:22:17;;;;;;;11.27;9.02;;;9.40;99.90;;;;;;5015034;28;20656;-59
2023/10/19 08:24:43;;;;;;;14.07;10.18;;;9.40;99.90;;;;;;5032395;28;20555;-60
2023/10/19 08:27:10;;;;;;;11.70;7.38;;;9.50;99.90;;;;;;5032506;28;20718;-56
2023/10/19 08:29:38;;;;;;;7.38;6.68;;;9.50;99.90;;;;;;5032701;28;20188;-58
2023/10/19 08:32:04;;;;;;;7.00;6.30;;;9.50;99.90;;;;;;5032532;28;20639;-56
2023/10/19 08:34:35;;;;;;;7.47;6.50;;;9.50;99.90;;;;;;5015173;28;20584;-54
2023/10/19 08:37:04;;;;;;;7.10;6.40;;;9.50;99.90;;;;;;5032971;28;20255;-58
2023/10/19 08:39:40;;;;;;;7.63;6.78;;;9.50;99.90;;;;;;5032368;28;20207;-54
2023/10/19 08:42:06;;;;;;;7.95;6.50;;;9.50;99.90;;;;;;5032201;28;20179;-58
2023/10/19 08:44:34;;;;;;;6.70;6.00;;;9.50;99.90;;;;;;5032653;28;20209;-54
2023/10/19 08:47:00;;;;;;;7.72;6.57;;;9.50;99.90;;;;;;5014453;28;20223;-56
2023/10/19 08:49:26;;;;;;;7.13;6.43;;;9.50;99.90;;;;;;5032190;28;20207;-54
2023/10/19 08:51:53;;;;;;;6.95;6.25;;;9.50;99.90;;;;;;5014211;28;20603;-57
2023/10/19 08:54:20;;;;;;;7.20;6.50;;;9.60;99.90;;;;;;5032066;28;20643;-53
2023/10/19 08:56:49;;;;;;;8.13;7.18;;;9.60;99.90;;;;;;5031979;28;20729;-56
2023/10/19 08:59:16;;;;;;;7.50;6.55;;;9.60;99.90;;;;;;5031843;28;20183;-57
2023/10/19 09:01:45;;;;;;;7.82;7.03;;;9.60;99.90;;;;;;5014941;28;20245;-59
2023/10/19 09:04:13;;;;;;;7.88;7.10;;;9.60;99.90;;;;;;5032308;28;20263;-58
2023/10/19 09:06:43;;;;;;;8.25;6.63;;;9.70;99.90;;;;;;5014570;28;20774;-57
2023/10/19 09:09:16;;;;;;;7.18;6.47;;;9.70;99.90;;;;;;5031863;28;20191;-58
2023/10/19 09:11:43;;;;;;;7.13;6.43;;;9.70;99.90;;;;;;5032386;28;20172;-60
2023/10/19 09:14:12;;;;;;;6.95;6.25;;;9.70;99.90;;;;;;5013891;28;20190;-58
2023/10/19 09:16:56;;;;;;;6.78;6.03;;;9.70;99.90;;;;;;5031525;28;20196;-52
2023/10/19 09:19:40;;;;;;;7.93;6.78;;;9.70;99.90;;;;;;5032049;28;20171;-57
2023/10/19 09:22:18;;;;;;;7.75;6.60;;;9.70;99.90;;;;;;5031542;28;20176;-55
2023/10/19 09:24:49;;;;;;;7.88;7.07;;;9.70;99.90;;;;;;5014075;28;20188;-57
2023/10/19 09:27:19;;;;;;;8.27;6.38;;;9.70;99.90;;;;;;5031275;28;20215;-58
2023/10/19 09:29:46;;;;;;;8.40;6.80;;;9.80;99.90;;;;;;4997864;28;20184;-57
2023/10/19 09:32:15;;;;;;;7.15;6.22;;;9.80;99.90;;;;;;5031279;28;20212;-55
2023/10/19 09:34:44;;;;;;;7.88;6.65;;;9.80;99.90;;;;;;5031392;28;20176;-53
2023/10/19 09:37:11;;;;;;;8.20;6.85;;;9.80;99.90;;;;;;5031412;28;20686;-56
2023/10/19 09:39:37;;;;;;;8.18;6.93;;;9.80;99.90;;;;;;5031398;28;20184;-54
2023/10/19 09:42:16;;;;;;;7.65;6.50;;;9.80;99.90;;;;;;4998126;28;20207;-52
2023/10/19 09:44:48;;;;;;;8.43;6.88;;;9.80;99.90;;;;;;5031645;28;20268;-58
2023/10/19 09:47:30;;;;;;;9.57;7.35;;;9.80;99.90;;;;;;5031627;28;20257;-54
2023/10/19 09:49:57;;;;;;;8.80;6.93;;;9.90;99.90;;;;;;5031522;28;20164;-53
2023/10/19 09:52:26;;;;;;;8.65;7.30;;;9.90;99.90;;;;;;5032005;28;20183;-51
2023/10/19 09:55:08;;;;;;;10.27;8.25;;;9.90;99.90;;;;;;5034911;28;20198;-53
2023/10/19 09:57:55;;;;;;;8.55;7.20;;;9.90;99.90;;;;;;5035359;28;20683;-57
2023/10/19 10:00:24;;;;;;;9.63;7.47;;;9.90;99.90;;;;;;5035882;28;20172;-52
2023/10/19 10:02:51;;;;;;;11.32;7.40;;;10.00;99.90;;;;;;5035043;28;20187;-52
2023/10/19 10:05:41;;;;;;;8.65;7.70;;;10.00;99.90;;;;;;5034203;28;20261;-55
2023/10/19 10:08:17;;;;;;;13.52;7.50;;;10.00;99.90;;;;;;5035111;28;20191;-50
2023/10/19 10:10:51;;;;;;;10.07;7.72;;;10.00;99.90;;;;;;5017197;28;20168;-50
2023/10/19 10:13:34;;;;;;;9.52;7.60;;;10.00;99.90;;;;;;5035000;28;20226;-57
2023/10/19 10:16:03;;;;;;;10.23;7.35;;;10.10;99.90;;;;;;5034877;28;20192;-51
2023/10/19 10:18:35;;;;;;;10.07;8.57;;;10.10;99.90;;;;;;5034363;28;20214;-52
2023/10/19 10:21:16;;;;;;;11.27;7.60;;;10.10;99.90;;;;;;5035179;28;20281;-52
2023/10/19 10:23:53;;;;;;;15.55;7.53;;;10.20;99.90;;;;;;5034837;28;20212;-50
2023/10/19 10:26:24;;;;;;;12.55;7.78;;;10.20;99.90;;;;;;5017390;28;20302;-55
2023/10/19 10:29:21;;;;;;;9.85;7.20;;;10.20;99.90;;;;;;5017282;28;20168;-52
2023/10/19 10:31:48;;;;;;;11.35;7.18;;;10.30;99.90;;;;;;5035086;28;20171;-58
2023/10/19 10:34:42;;;;;;;12.18;7.50;;;10.30;99.90;;;;;;4984647;28;20541;-54
2023/10/19 10:37:10;;;;;;;12.25;7.97;;;10.30;99.90;;;;;;5034689;28;20299;-58
2023/10/19 10:39:40;;;;;;;9.10;7.43;;;10.30;99.90;;;;;;5034797;28;20199;-53
2023/10/19 10:42:09;;;;;;;9.70;7.43;;;10.30;99.90;;;;;;5034389;28;20548;-54
2023/10/19 10:44:44;;;;;;;8.05;7.07;;;10.40;99.90;;;;;;5034750;28;20172;-56
2023/10/19 10:47:16;;;;;;;11.55;7.78;;;10.30;99.90;;;;;;5016821;28;20485;-54
2023/10/19 10:49:50;;;;;;;9.35;6.95;;;10.40;99.90;;;;;;5034571;28;20168;-56
2023/10/19 10:52:31;;;;;;;11.20;7.72;;;10.30;99.90;;;;;;5034678;28;20168;-55
2023/10/19 10:55:14;;;;;;;14.30;7.75;;;10.30;99.90;;;;;;5034925;28;20206;-55
2023/10/19 10:57:41;;;;;;;9.63;7.88;;;10.30;99.90;;;;;;5034675;28;20258;-61
2023/10/19 11:00:16;;;;;;;11.63;8.63;;;10.40;99.90;;;;;;5034600;28;20725;-54
2023/10/19 11:02:47;;;;;;;10.77;8.82;;;10.40;99.90;;;;;;5016693;28;20167;-56
2023/10/19 11:05:14;;;;;;;11.73;9.77;;;10.40;99.90;;;;;;5033500;28;20562;-57
2023/10/19 11:07:41;;;;;;;13.85;9.88;;;10.40;99.90;;;;;;5034038;28;20210;-55
2023/10/19 11:10:09;;;;;;;10.73;9.43;;;10.40;99.90;;;;;;5034207;28;20692;-57
2023/10/19 11:12:35;;;;;;;10.30;8.73;;;10.40;99.90;;;;;;5034061;28;20330;-56
2023/10/19 11:15:09;;;;;;;12.15;8.73;;;10.40;99.90;;;;;;5016359;28;20196;-53
2023/10/19 11:17:42;;;;;;;12.52;8.70;;;10.30;99.90;;;;;;5032689;28;20210;-54
2023/10/19 11:20:14;;;;;;;10.23;8.15;;;10.30;99.90;;;;;;5034111;28;20179;-56
2023/10/19 11:22:50;;;;;;;12.15;8.05;;;10.30;99.90;;;;;;5033729;28;20160;-55
2023/10/19 11:25:28;;;;;;;10.00;7.35;;;10.30;99.90;;;;;;5033942;28;20597;-53
2023/10/19 11:28:04;;;;;;;10.52;8.60;;;10.30;99.90;;;;;;5033826;28;20172;-56
2023/10/19 11:30:31;;;;;;;13.45;8.50;;;10.30;99.90;;;;;;5034140;28;20172;-58
2023/10/19 11:32:59;;;;;;;11.88;8.63;;;10.30;99.90;;;;;;5033742;28;20184;-54
2023/10/19 11:35:27;;;;;;;11.05;7.88;;;10.30;99.90;;;;;;5033639;28;20226;-57
2023/10/19 11:37:55;;;;;;;10.75;8.10;;;10.40;99.90;;;;;;5033339;28;20179;-55
2023/10/19 11:40:22;;;;;;;11.90;8.48;;;10.40;99.90;;;;;;5015979;28;20215;-56
2023/10/19 11:42:49;;;;;;;10.45;9.18;;;10.40;99.90;;;;;;5015833;28;20242;-54
2023/10/19 11:45:16;;;;;;;12.93;9.80;;;10.40;99.90;;;;;;5033652;28;20184;-57
2023/10/19 11:47:45;;;;;;;16.40;11.80;;;10.40;99.90;;;;;;5034035;28;20215;-56
2023/10/19 11:50:15;;;;;;;15.93;11.02;;;10.40;99.90;;;;;;5033269;28;20186;-55
2023/10/19 11:52:42;;;;;;;13.57;10.00;;;10.40;99.90;;;;;;5015686;28;20187;-56
2023/10/19 11:55:09;;;;;;;13.65;10.30;;;10.40;99.90;;;;;;5032897;28;20263;-56
2023/10/19 11:57:36;;;;;;;11.63;9.73;;;10.40;99.90;;;;;;5033046;28;20239;-54
2023/10/19 12:00:08;;;;;;;13.27;10.38;;;10.40;99.90;;;;;;5015227;28;20188;-58
2023/10/19 12:02:37;;;;;;;12.23;10.63;;;10.40;99.90;;;;;;5015709;28;20187;-55
2023/10/19 12:05:09;;;;;;;14.23;11.85;;;10.50;99.90;;;;;;5032894;28;20180;-57
2023/10/19 12:07:38;;;;;;;15.77;12.32;;;10.50;99.90;;;;;;5033167;28;20262;-54
2023/10/19 12:10:09;;;;;;;18.05;13.30;;;10.50;99.90;;;;;;5015396;28;20196;-58
2023/10/19 12:12:38;;;;;;;16.60;13.45;;;10.50;99.90;;;;;;5032787;28;20176;-55
2023/10/19 12:15:05;;;;;;;15.13;12.10;;;10.50;99.90;;;;;;5015092;28;20180;-57
2023/10/19 12:17:34;;;;;;;12.18;10.90;;;10.40;99.90;;;;;;5013877;28;20196;-58
2023/10/19 12:20:00;;;;;;;15.43;11.77;;;10.40;99.90;;;;;;5032709;28;20176;-60
2023/10/19 12:22:32;;;;;;;15.32;11.55;;;10.50;99.90;;;;;;5032665;28;20234;-56
2023/10/19 12:24:59;;;;;;;18.10;10.55;;;10.50;99.90;;;;;;5032743;28;20274;-58
2023/10/19 12:27:25;;;;;;;13.65;10.23;;;10.50;99.90;;;;;;5032169;28;20211;-55
2023/10/19 12:29:54;;;;;;;11.52;9.00;;;10.50;99.90;;;;;;5014547;28;20249;-63
2023/10/19 12:32:22;;;;;;;10.05;8.60;;;10.50;99.90;;;;;;5015155;28;20643;-54
2023/10/19 12:34:56;;;;;;;10.55;8.38;;;10.40;99.90;;;;;;5032406;28;20291;-60
2023/10/19 12:37:21;;;;;;;15.73;9.75;;;10.40;99.90;;;;;;5015209;28;20195;-64
2023/10/19 12:39:49;;;;;;;9.20;7.72;;;10.40;99.90;;;;;;5014746;28;20184;-65
2023/10/19 12:42:15;;;;;;;11.75;7.82;;;10.40;99.90;;;;;;5032351;28;20192;-65
2023/10/19 12:44:43;;;;;;;10.05;7.35;;;10.40;99.90;;;;;;5032352;28;20184;-64
2023/10/19 12:47:12;;;;;;;12.98;7.85;;;10.40;99.90;;;;;;5032118;28;20199;-63
2023/10/19 12:49:44;;;;;;;11.50;7.60;;;10.30;99.90;;;;;;5014446;28;20298;-64
2023/10/19 12:52:10;;;;;;;12.50;7.50;;;10.30;99.90;;;;;;5030896;28;20636;-66
2023/10/19 12:54:37;;;;;;;12.68;7.68;;;10.30;99.90;;;;;;5032123;28;20187;-65
2023/10/19 12:57:06;;;;;;;8.45;7.55;;;10.30;99.90;;;;;;5013843;28;20223;-65
2023/10/19 12:59:33;;;;;;;10.38;7.18;;;10.30;99.90;;;;;;5032070;28;20204;-66
2023/10/19 13:02:02;;;;;;;10.52;7.93;;;10.30;99.90;;;;;;5031748;28;20218;-64
2023/10/19 13:04:30;;;;;;;12.93;8.40;;;10.30;99.90;;;;;;5014054;28;20179;-65
2023/10/19 13:06:57;;;;;;;11.10;7.82;;;10.30;99.90;;;;;;5032089;28;20204;-65
2023/10/19 13:09:30;;;;;;;14.80;7.80;;;10.30;99.90;;;;;;5014282;28;20191;-64
2023/10/19 13:12:00;;;;;;;11.60;7.95;;;10.30;99.90;;;;;;5014280;28;20216;-66
2023/10/19 13:14:27;;;;;;;8.63;7.72;;;10.30;99.90;;;;;;5031710;28;20608;-65
2023/10/19 13:16:54;;;;;;;10.85;8.07;;;10.30;99.90;;;;;;5013856;28;20325;-65
2023/10/19 13:19:26;;;;;;;13.80;8.63;;;10.30;99.90;;;;;;5031531;28;20176;-67